sensor_id;sensor_type;location;lat;lon;timestamp;temperature;humidity
21906;DHT22;11117;48.644;9.006;2023-04-03T00:01:10;3.20;99.90
21906;DHT22;11117;48.644;9.006;2023-04-03T00:03:36;3.30;99.90
21906;DHT22;11117;48.644;9.006;2023-04-03T00:06:02;3.30;99.90
21906;DHT22;11117;48.644;9.006;2023-04-03T00:08:28;3.40;99.90
21906;DHT22;11117;48.644;9.006;2023-04-03T00:10:54;3.40;99.90
21906;DHT22;11117;48.644;9.006;2023-04-03T00:13:20;3.40;99.90
21906;DHT22;11117;48.644;9.006;2023-04-03T00:15:45;3.40;99.90
21906;DHT22;11117;48.644;9.006;2023-04-03T00:18:11;3.40;99.90
21906;DHT22;11117;48.644;9.006;2023-04-03T00:20:36;3.40;99.90
21906;DHT22;11117;48.644;9.006;2023-04-03T00:23:02;3.30;99.90
21906;DHT22;11117;48.644;9.006;2023-04-03T00:25:28;3.30;99.90
21906;DHT22;11117;48.644;9.006;2023-04-03T00:27:53;3.30;99.90
21906;DHT22;11117;48.644;9.006;2023-04-03T00:30:21;3.30;99.90
21906;DHT22;11117;48.644;9.006;2023-04-03T00:32:50;3.20;99.90
21906;DHT22;11117;48.644;9.006;2023-04-03T00:35:17;3.20;99.90
21906;DHT22;11117;48.644;9.006;2023-04-03T00:37:43;3.20;99.90
21906;DHT22;11117;48.644;9.006;2023-04-03T00:40:09;3.20;99.90
21906;DHT22;11117;48.644;9.006;2023-04-03T00:42:36;3.20;99.90
21906;DHT22;11117;48.644;9.006;2023-04-03T00:47:27;3.20;99.90
21906;DHT22;11117;48.644;9.006;2023-04-03T00:49:53;3.10;99.90
21906;DHT22;11117;48.644;9.006;2023-04-03T00:52:22;3.10;99.90
21906;DHT22;11117;48.644;9.006;2023-04-03T00:54:50;3.00;99.90
21906;DHT22;11117;48.644;9.006;2023-04-03T00:57:17;2.90;99.90
21906;DHT22;11117;48.644;9.006;2023-04-03T00:59:48;2.90;99.90
21906;DHT22;11117;48.644;9.006;2023-04-03T01:02:15;3.00;99.90
21906;DHT22;11117;48.644;9.006;2023-04-03T01:04:42;3.00;99.90
21906;DHT22;11117;48.644;9.006;2023-04-03T01:07:11;3.00;99.90
21906;DHT22;11117;48.644;9.006;2023-04-03T01:09:38;3.10;99.90
21906;DHT22;11117;48.644;9.006;2023-04-03T01:12:20;3.00;99.90
21906;DHT22;11117;48.644;9.006;2023-04-03T01:14:49;3.00;99.90
21906;DHT22;11117;48.644;9.006;2023-04-03T01:17:29;2.90;99.90
21906;DHT22;11117;48.644;9.006;2023-04-03T01:25:28;2.90;99.90
21906;DHT22;11117;48.644;9.006;2023-04-03T01:27:54;2.90;99.90
21906;DHT22;11117;48.644;9.006;2023-04-03T01:30:21;2.90;99.90
21906;DHT22;11117;48.644;9.006;2023-04-03T01:32:49;2.80;99.90
21906;DHT22;11117;48.644;9.006;2023-04-03T01:35:14;2.70;99.90
21906;DHT22;11117;48.644;9.006;2023-04-03T01:37:40;2.80;99.90
21906;DHT22;11117;48.644;9.006;2023-04-03T01:40:06;2.80;99.90
21906;DHT22;11117;48.644;9.006;2023-04-03T01:42:32;2.80;99.90
21906;DHT22;11117;48.644;9.006;2023-04-03T01:44:57;2.70;99.90
21906;DHT22;11117;48.644;9.006;2023-04-03T01:47:23;2.70;99.90
21906;DHT22;11117;48.644;9.006;2023-04-03T01:49:48;2.70;99.90
21906;DHT22;11117;48.644;9.006;2023-04-03T01:52:14;2.70;99.90
21906;DHT22;11117;48.644;9.006;2023-04-03T01:54:40;2.70;99.90
21906;DHT22;11117;48.644;9.006;2023-04-03T01:57:05;2.60;99.90
21906;DHT22;11117;48.644;9.006;2023-04-03T01:59:31;2.60;99.90
21906;DHT22;11117;48.644;9.006;2023-04-03T02:01:58;2.60;99.90
21906;DHT22;11117;48.644;9.006;2023-04-03T02:04:24;2.60;99.90
21906;DHT22;11117;48.644;9.006;2023-04-03T02:06:49;2.60;99.90
21906;DHT22;11117;48.644;9.006;2023-04-03T02:09:15;2.60;99.90
21906;DHT22;11117;48.644;9.006;2023-04-03T02:11:40;2.60;99.90
21906;DHT22;11117;48.644;9.006;2023-04-03T02:14:06;2.60;99.90
21906;DHT22;11117;48.644;9.006;2023-04-03T02:16:32;2.60;99.90
21906;DHT22;11117;48.644;9.006;2023-04-03T02:18:58;2.50;99.90
21906;DHT22;11117;48.644;9.006;2023-04-03T02:21:23;2.50;99.90
21906;DHT22;11117;48.644;9.006;2023-04-03T02:23:49;2.50;99.90
21906;DHT22;11117;48.644;9.006;2023-04-03T02:26:16;2.50;99.90
21906;DHT22;11117;48.644;9.006;2023-04-03T02:28:42;2.50;99.90
21906;DHT22;11117;48.644;9.006;2023-04-03T02:31:08;2.50;99.90
21906;DHT22;11117;48.644;9.006;2023-04-03T02:33:35;2.50;99.90
21906;DHT22;11117;48.644;9.006;2023-04-03T02:36:00;2.60;99.90
21906;DHT22;11117;48.644;9.006;2023-04-03T02:38:26;2.60;99.90
21906;DHT22;11117;48.644;9.006;2023-04-03T02:40:51;2.50;99.90
21906;DHT22;11117;48.644;9.006;2023-04-03T02:43:18;2.50;99.90
21906;DHT22;11117;48.644;9.006;2023-04-03T02:45:52;2.60;99.90
21906;DHT22;11117;48.644;9.006;2023-04-03T02:48:17;2.60;99.90
21906;DHT22;11117;48.644;9.006;2023-04-03T02:50:43;2.60;99.90
21906;DHT22;11117;48.644;9.006;2023-04-03T02:53:08;2.60;99.90
21906;DHT22;11117;48.644;9.006;2023-04-03T02:55:34;2.70;99.90
21906;DHT22;11117;48.644;9.006;2023-04-03T02:57:59;2.70;99.90
21906;DHT22;11117;48.644;9.006;2023-04-03T03:00:25;2.70;99.90
21906;DHT22;11117;48.644;9.006;2023-04-03T03:02:50;2.60;99.90
21906;DHT22;11117;48.644;9.006;2023-04-03T03:05:16;2.70;99.90
21906;DHT22;11117;48.644;9.006;2023-04-03T03:07:42;2.70;99.90
21906;DHT22;11117;48.644;9.006;2023-04-03T03:10:08;2.70;99.90
21906;DHT22;11117;48.644;9.006;2023-04-03T03:12:33;2.70;99.90
21906;DHT22;11117;48.644;9.006;2023-04-03T03:14:59;2.70;99.90
21906;DHT22;11117;48.644;9.006;2023-04-03T03:17:24;2.60;99.90
21906;DHT22;11117;48.644;9.006;2023-04-03T03:19:50;2.60;99.90
21906;DHT22;11117;48.644;9.006;2023-04-03T03:22:16;2.70;99.90
21906;DHT22;11117;48.644;9.006;2023-04-03T03:24:42;2.70;99.90
21906;DHT22;11117;48.644;9.006;2023-04-03T03:27:07;2.70;99.90
21906;DHT22;11117;48.644;9.006;2023-04-03T03:29:33;2.70;99.90
21906;DHT22;11117;48.644;9.006;2023-04-03T03:31:59;2.80;99.90
21906;DHT22;11117;48.644;9.006;2023-04-03T03:34:24;2.80;99.90
21906;DHT22;11117;48.644;9.006;2023-04-03T03:36:50;2.80;99.90
21906;DHT22;11117;48.644;9.006;2023-04-03T03:39:16;2.90;99.90
21906;DHT22;11117;48.644;9.006;2023-04-03T03:41:41;2.90;99.90
21906;DHT22;11117;48.644;9.006;2023-04-03T03:44:07;3.00;99.90
21906;DHT22;11117;48.644;9.006;2023-04-03T03:46:32;3.00;99.90
21906;DHT22;11117;48.644;9.006;2023-04-03T03:48:58;3.10;99.90
21906;DHT22;11117;48.644;9.006;2023-04-03T03:51:23;3.00;99.90
21906;DHT22;11117;48.644;9.006;2023-04-03T03:53:49;3.00;99.90
21906;DHT22;11117;48.644;9.006;2023-04-03T03:56:14;2.90;99.90
21906;DHT22;11117;48.644;9.006;2023-04-03T03:58:40;2.90;99.90
21906;DHT22;11117;48.644;9.006;2023-04-03T04:01:06;2.80;99.90
21906;DHT22;11117;48.644;9.006;2023-04-03T04:03:32;2.90;99.90
21906;DHT22;11117;48.644;9.006;2023-04-03T04:05:58;2.80;99.90
21906;DHT22;11117;48.644;9.006;2023-04-03T04:08:24;2.90;99.90
21906;DHT22;11117;48.644;9.006;2023-04-03T04:10:50;2.90;99.90
21906;DHT22;11117;48.644;9.006;2023-04-03T04:13:15;2.90;99.90
21906;DHT22;11117;48.644;9.006;2023-04-03T04:15:42;2.90;99.90
21906;DHT22;11117;48.644;9.006;2023-04-03T04:18:07;2.90;99.90
21906;DHT22;11117;48.644;9.006;2023-04-03T04:20:33;2.90;99.90
21906;DHT22;11117;48.644;9.006;2023-04-03T04:22:58;2.80;99.90
21906;DHT22;11117;48.644;9.006;2023-04-03T04:25:24;2.70;99.90
21906;DHT22;11117;48.644;9.006;2023-04-03T04:27:49;2.70;99.90
21906;DHT22;11117;48.644;9.006;2023-04-03T04:30:15;2.60;99.90
21906;DHT22;11117;48.644;9.006;2023-04-03T04:32:41;2.60;99.90
21906;DHT22;11117;48.644;9.006;2023-04-03T04:35:06;2.60;99.90
21906;DHT22;11117;48.644;9.006;2023-04-03T04:37:32;2.60;99.90
21906;DHT22;11117;48.644;9.006;2023-04-03T04:39:58;2.70;99.90
21906;DHT22;11117;48.644;9.006;2023-04-03T04:42:23;2.70;99.90
21906;DHT22;11117;48.644;9.006;2023-04-03T04:44:49;2.80;99.90
21906;DHT22;11117;48.644;9.006;2023-04-03T04:47:14;2.80;99.90
21906;DHT22;11117;48.644;9.006;2023-04-03T04:49:40;2.70;99.90
21906;DHT22;11117;48.644;9.006;2023-04-03T04:52:06;2.70;99.90
21906;DHT22;11117;48.644;9.006;2023-04-03T04:54:31;2.80;99.90
21906;DHT22;11117;48.644;9.006;2023-04-03T04:56:57;2.80;99.90
21906;DHT22;11117;48.644;9.006;2023-04-03T04:59:23;2.80;99.90
21906;DHT22;11117;48.644;9.006;2023-04-03T05:01:49;2.90;99.90
21906;DHT22;11117;48.644;9.006;2023-04-03T05:04:15;2.90;99.90
21906;DHT22;11117;48.644;9.006;2023-04-03T05:06:41;2.90;99.90
21906;DHT22;11117;48.644;9.006;2023-04-03T05:09:06;2.90;99.90
21906;DHT22;11117;48.644;9.006;2023-04-03T05:11:32;2.90;99.90
21906;DHT22;11117;48.644;9.006;2023-04-03T05:13:58;2.90;99.90
21906;DHT22;11117;48.644;9.006;2023-04-03T05:16:23;2.90;99.90
21906;DHT22;11117;48.644;9.006;2023-04-03T05:18:49;2.90;99.90
21906;DHT22;11117;48.644;9.006;2023-04-03T05:21:15;2.90;99.90
21906;DHT22;11117;48.644;9.006;2023-04-03T05:23:40;2.80;99.90
21906;DHT22;11117;48.644;9.006;2023-04-03T05:26:06;2.80;99.90
21906;DHT22;11117;48.644;9.006;2023-04-03T05:28:32;2.80;99.90
21906;DHT22;11117;48.644;9.006;2023-04-03T05:30:58;2.90;99.90
21906;DHT22;11117;48.644;9.006;2023-04-03T05:33:24;2.90;99.90
21906;DHT22;11117;48.644;9.006;2023-04-03T05:35:50;3.00;99.90
21906;DHT22;11117;48.644;9.006;2023-04-03T05:38:15;3.00;99.90
21906;DHT22;11117;48.644;9.006;2023-04-03T05:40:41;3.10;99.90
21906;DHT22;11117;48.644;9.006;2023-04-03T05:43:06;3.20;99.90
21906;DHT22;11117;48.644;9.006;2023-04-03T05:45:32;3.20;99.90
21906;DHT22;11117;48.644;9.006;2023-04-03T05:47:57;3.20;99.90
21906;DHT22;11117;48.644;9.006;2023-04-03T05:50:23;3.30;99.90
21906;DHT22;11117;48.644;9.006;2023-04-03T05:52:49;3.30;99.90
21906;DHT22;11117;48.644;9.006;2023-04-03T05:55:16;3.40;99.90
21906;DHT22;11117;48.644;9.006;2023-04-03T05:57:41;3.40;99.90
21906;DHT22;11117;48.644;9.006;2023-04-03T06:00:08;3.50;99.90
21906;DHT22;11117;48.644;9.006;2023-04-03T06:02:34;3.50;99.90
21906;DHT22;11117;48.644;9.006;2023-04-03T06:05:00;3.50;99.90
21906;DHT22;11117;48.644;9.006;2023-04-03T06:07:26;3.50;99.90
21906;DHT22;11117;48.644;9.006;2023-04-03T06:09:51;3.50;99.90
21906;DHT22;11117;48.644;9.006;2023-04-03T06:12:18;3.50;99.90
21906;DHT22;11117;48.644;9.006;2023-04-03T06:14:43;3.50;99.90
21906;DHT22;11117;48.644;9.006;2023-04-03T06:17:09;3.60;99.90
21906;DHT22;11117;48.644;9.006;2023-04-03T06:19:35;3.50;99.90
21906;DHT22;11117;48.644;9.006;2023-04-03T06:22:01;3.60;99.90
21906;DHT22;11117;48.644;9.006;2023-04-03T06:24:27;3.60;99.90
21906;DHT22;11117;48.644;9.006;2023-04-03T06:26:53;3.50;99.90
21906;DHT22;11117;48.644;9.006;2023-04-03T06:29:19;3.80;99.90
21906;DHT22;11117;48.644;9.006;2023-04-03T06:31:45;3.80;99.90
21906;DHT22;11117;48.644;9.006;2023-04-03T06:34:11;3.80;99.90
21906;DHT22;11117;48.644;9.006;2023-04-03T06:36:37;3.70;99.90
21906;DHT22;11117;48.644;9.006;2023-04-03T06:39:03;3.60;99.90
21906;DHT22;11117;48.644;9.006;2023-04-03T06:41:28;3.70;99.90
21906;DHT22;11117;48.644;9.006;2023-04-03T06:43:54;3.60;99.90
21906;DHT22;11117;48.644;9.006;2023-04-03T06:46:21;3.60;99.90
21906;DHT22;11117;48.644;9.006;2023-04-03T06:48:48;3.80;99.90
21906;DHT22;11117;48.644;9.006;2023-04-03T06:51:20;4.10;99.90
21906;DHT22;11117;48.644;9.006;2023-04-03T06:53:47;3.80;99.90
21906;DHT22;11117;48.644;9.006;2023-04-03T06:56:13;3.70;99.90
21906;DHT22;11117;48.644;9.006;2023-04-03T06:58:39;3.80;99.90
21906;DHT22;11117;48.644;9.006;2023-04-03T07:01:04;3.80;99.90
21906;DHT22;11117;48.644;9.006;2023-04-03T07:03:30;4.00;99.90
21906;DHT22;11117;48.644;9.006;2023-04-03T07:05:55;3.90;99.90
21906;DHT22;11117;48.644;9.006;2023-04-03T07:08:21;4.00;99.90
21906;DHT22;11117;48.644;9.006;2023-04-03T07:10:47;4.10;99.90
21906;DHT22;11117;48.644;9.006;2023-04-03T07:13:12;4.20;99.90
21906;DHT22;11117;48.644;9.006;2023-04-03T07:15:38;4.30;99.90
21906;DHT22;11117;48.644;9.006;2023-04-03T07:18:03;4.60;99.90
21906;DHT22;11117;48.644;9.006;2023-04-03T07:20:29;4.90;99.90
21906;DHT22;11117;48.644;9.006;2023-04-03T07:22:54;4.80;99.90
21906;DHT22;11117;48.644;9.006;2023-04-03T07:25:20;4.80;99.90
21906;DHT22;11117;48.644;9.006;2023-04-03T07:27:45;4.70;99.90
21906;DHT22;11117;48.644;9.006;2023-04-03T07:30:11;4.90;99.90
21906;DHT22;11117;48.644;9.006;2023-04-03T07:32:37;5.20;99.90
21906;DHT22;11117;48.644;9.006;2023-04-03T07:35:03;5.10;99.90
21906;DHT22;11117;48.644;9.006;2023-04-03T07:37:29;5.10;99.90
21906;DHT22;11117;48.644;9.006;2023-04-03T07:39:54;5.00;99.90
21906;DHT22;11117;48.644;9.006;2023-04-03T07:42:20;5.10;99.90
21906;DHT22;11117;48.644;9.006;2023-04-03T07:44:45;5.40;99.90
21906;DHT22;11117;48.644;9.006;2023-04-03T07:47:11;5.40;99.90
21906;DHT22;11117;48.644;9.006;2023-04-03T07:49:36;5.50;99.90
21906;DHT22;11117;48.644;9.006;2023-04-03T07:52:02;5.50;99.90
21906;DHT22;11117;48.644;9.006;2023-04-03T07:54:27;5.60;99.90
21906;DHT22;11117;48.644;9.006;2023-04-03T07:56:53;5.50;99.90
21906;DHT22;11117;48.644;9.006;2023-04-03T07:59:18;5.40;99.90
21906;DHT22;11117;48.644;9.006;2023-04-03T08:01:44;5.60;99.90
21906;DHT22;11117;48.644;9.006;2023-04-03T08:04:09;5.80;99.90
21906;DHT22;11117;48.644;9.006;2023-04-03T08:06:35;5.90;99.90
21906;DHT22;11117;48.644;9.006;2023-04-03T08:09:03;5.90;99.90
21906;DHT22;11117;48.644;9.006;2023-04-03T08:11:28;5.70;99.90
21906;DHT22;11117;48.644;9.006;2023-04-03T08:13:54;5.80;99.90
21906;DHT22;11117;48.644;9.006;2023-04-03T08:16:22;5.60;99.90
21906;DHT22;11117;48.644;9.006;2023-04-03T08:18:48;5.70;99.90
21906;DHT22;11117;48.644;9.006;2023-04-03T08:21:13;5.80;99.90
21906;DHT22;11117;48.644;9.006;2023-04-03T08:23:40;5.80;99.90
21906;DHT22;11117;48.644;9.006;2023-04-03T08:26:11;5.80;99.90
21906;DHT22;11117;48.644;9.006;2023-04-03T08:28:37;5.90;99.90
21906;DHT22;11117;48.644;9.006;2023-04-03T08:31:05;6.20;99.90
21906;DHT22;11117;48.644;9.006;2023-04-03T08:33:31;6.30;99.90
21906;DHT22;11117;48.644;9.006;2023-04-03T08:35:57;6.60;99.90
21906;DHT22;11117;48.644;9.006;2023-04-03T08:38:22;6.70;99.90
21906;DHT22;11117;48.644;9.006;2023-04-03T08:40:48;6.70;99.90
21906;DHT22;11117;48.644;9.006;2023-04-03T08:43:53;6.40;99.90
21906;DHT22;11117;48.644;9.006;2023-04-03T08:46:23;6.70;99.90
21906;DHT22;11117;48.644;9.006;2023-04-03T08:48:50;6.80;99.90
21906;DHT22;11117;48.644;9.006;2023-04-03T08:51:19;6.60;99.90
21906;DHT22;11117;48.644;9.006;2023-04-03T08:54:04;6.60;99.90
21906;DHT22;11117;48.644;9.006;2023-04-03T08:56:33;6.70;99.90
21906;DHT22;11117;48.644;9.006;2023-04-03T08:59:04;6.90;99.90
21906;DHT22;11117;48.644;9.006;2023-04-03T09:01:35;6.90;99.90
21906;DHT22;11117;48.644;9.006;2023-04-03T09:04:02;7.10;99.90
21906;DHT22;11117;48.644;9.006;2023-04-03T09:06:32;7.10;99.90
21906;DHT22;11117;48.644;9.006;2023-04-03T09:14:38;6.80;99.90
21906;DHT22;11117;48.644;9.006;2023-04-03T09:17:41;6.80;99.90
21906;DHT22;11117;48.644;9.006;2023-04-03T09:23:01;6.30;99.90
21906;DHT22;11117;48.644;9.006;2023-04-03T09:25:36;6.20;99.90
21906;DHT22;11117;48.644;9.006;2023-04-03T09:28:03;6.10;99.90
21906;DHT22;11117;48.644;9.006;2023-04-03T09:30:29;6.10;99.90
21906;DHT22;11117;48.644;9.006;2023-04-03T09:32:57;6.30;99.90
21906;DHT22;11117;48.644;9.006;2023-04-03T09:35:26;6.40;99.90
21906;DHT22;11117;48.644;9.006;2023-04-03T09:37:55;6.40;99.90
21906;DHT22;11117;48.644;9.006;2023-04-03T09:43:08;6.50;99.90
21906;DHT22;11117;48.644;9.006;2023-04-03T09:45:45;6.40;99.90
21906;DHT22;11117;48.644;9.006;2023-04-03T09:53:38;6.60;99.90
21906;DHT22;11117;48.644;9.006;2023-04-03T09:58:49;6.80;99.90
21906;DHT22;11117;48.644;9.006;2023-04-03T10:01:26;6.70;99.90
21906;DHT22;11117;48.644;9.006;2023-04-03T10:06:41;6.20;99.90
21906;DHT22;11117;48.644;9.006;2023-04-03T10:12:05;6.20;99.90
21906;DHT22;11117;48.644;9.006;2023-04-03T10:14:34;6.40;99.90
21906;DHT22;11117;48.644;9.006;2023-04-03T10:17:21;6.20;99.90
21906;DHT22;11117;48.644;9.006;2023-04-03T10:25:19;6.70;99.90
21906;DHT22;11117;48.644;9.006;2023-04-03T10:28:03;6.80;99.90
21906;DHT22;11117;48.644;9.006;2023-04-03T10:30:50;6.90;99.90
21906;DHT22;11117;48.644;9.006;2023-04-03T10:34:05;7.20;99.90
21906;DHT22;11117;48.644;9.006;2023-04-03T10:36:47;6.90;99.90
21906;DHT22;11117;48.644;9.006;2023-04-03T10:39:33;6.90;99.90
21906;DHT22;11117;48.644;9.006;2023-04-03T10:42:14;6.90;99.90
21906;DHT22;11117;48.644;9.006;2023-04-03T10:47:19;7.10;99.90
21906;DHT22;11117;48.644;9.006;2023-04-03T10:49:51;6.80;99.90
21906;DHT22;11117;48.644;9.006;2023-04-03T10:52:40;6.50;99.90
21906;DHT22;11117;48.644;9.006;2023-04-03T10:55:32;6.60;99.90
21906;DHT22;11117;48.644;9.006;2023-04-03T10:57:59;6.70;99.90
21906;DHT22;11117;48.644;9.006;2023-04-03T11:03:03;7.10;99.90
21906;DHT22;11117;48.644;9.006;2023-04-03T11:05:47;7.30;99.90
21906;DHT22;11117;48.644;9.006;2023-04-03T11:11:22;6.70;99.90
21906;DHT22;11117;48.644;9.006;2023-04-03T11:16:39;7.10;99.90
21906;DHT22;11117;48.644;9.006;2023-04-03T11:24:43;7.20;99.90
21906;DHT22;11117;48.644;9.006;2023-04-03T11:27:17;7.30;99.90
21906;DHT22;11117;48.644;9.006;2023-04-03T11:29:46;7.10;99.90
21906;DHT22;11117;48.644;9.006;2023-04-03T11:32:30;6.80;99.90
21906;DHT22;11117;48.644;9.006;2023-04-03T11:34:57;6.90;99.90
21906;DHT22;11117;48.644;9.006;2023-04-03T11:37:46;7.00;99.90
21906;DHT22;11117;48.644;9.006;2023-04-03T11:43:04;6.70;99.90
21906;DHT22;11117;48.644;9.006;2023-04-03T11:45:35;6.70;99.90
21906;DHT22;11117;48.644;9.006;2023-04-03T11:48:51;6.60;99.90
21906;DHT22;11117;48.644;9.006;2023-04-03T11:50:51;6.70;99.90
21906;DHT22;11117;48.644;9.006;2023-04-03T11:55:43;6.50;99.90
21906;DHT22;11117;48.644;9.006;2023-04-03T11:58:14;6.50;99.90
21906;DHT22;11117;48.644;9.006;2023-04-03T12:16:27;6.20;99.90
21906;DHT22;11117;48.644;9.006;2023-04-03T12:24:03;6.50;99.90
21906;DHT22;11117;48.644;9.006;2023-04-03T12:26:50;7.10;99.90
21906;DHT22;11117;48.644;9.006;2023-04-03T12:29:26;7.20;99.90
21906;DHT22;11117;48.644;9.006;2023-04-03T12:32:24;7.60;99.90
21906;DHT22;11117;48.644;9.006;2023-04-03T12:38:01;7.70;99.90
21906;DHT22;11117;48.644;9.006;2023-04-03T12:46:15;7.10;99.90
21906;DHT22;11117;48.644;9.006;2023-04-03T12:53:54;6.90;99.90
21906;DHT22;11117;48.644;9.006;2023-04-03T12:56:30;6.80;99.90
21906;DHT22;11117;48.644;9.006;2023-04-03T12:59:19;6.80;99.90
21906;DHT22;11117;48.644;9.006;2023-04-03T13:01:57;6.60;99.90
21906;DHT22;11117;48.644;9.006;2023-04-03T13:04:23;6.60;99.90
21906;DHT22;11117;48.644;9.006;2023-04-03T13:06:52;6.50;99.90
21906;DHT22;11117;48.644;9.006;2023-04-03T13:09:22;6.50;99.90
21906;DHT22;11117;48.644;9.006;2023-04-03T13:12:01;6.70;99.90
21906;DHT22;11117;48.644;9.006;2023-04-03T13:14:28;7.10;99.90
21906;DHT22;11117;48.644;9.006;2023-04-03T13:17:12;7.40;99.90
21906;DHT22;11117;48.644;9.006;2023-04-03T13:19:40;7.50;99.90
21906;DHT22;11117;48.644;9.006;2023-04-03T13:22:11;7.10;99.90
21906;DHT22;11117;48.644;9.006;2023-04-03T13:24:46;7.10;99.90
21906;DHT22;11117;48.644;9.006;2023-04-03T13:27:13;7.30;99.90
21906;DHT22;11117;48.644;9.006;2023-04-03T13:29:39;7.40;99.90
21906;DHT22;11117;48.644;9.006;2023-04-03T13:32:06;7.50;99.90
21906;DHT22;11117;48.644;9.006;2023-04-03T13:34:41;7.60;99.90
21906;DHT22;11117;48.644;9.006;2023-04-03T13:37:22;7.70;99.90
21906;DHT22;11117;48.644;9.006;2023-04-03T13:42:35;8.00;99.30
21906;DHT22;11117;48.644;9.006;2023-04-03T13:47:44;8.10;98.50
21906;DHT22;11117;48.644;9.006;2023-04-03T13:52:53;8.00;98.50
21906;DHT22;11117;48.644;9.006;2023-04-03T13:55:29;8.00;99.10
21906;DHT22;11117;48.644;9.006;2023-04-03T14:00:40;8.20;99.00
21906;DHT22;11117;48.644;9.006;2023-04-03T14:03:25;8.20;99.70
21906;DHT22;11117;48.644;9.006;2023-04-03T14:05:51;8.00;99.00
21906;DHT22;11117;48.644;9.006;2023-04-03T14:08:18;7.70;99.70
21906;DHT22;11117;48.644;9.006;2023-04-03T14:10:45;7.50;99.40
21906;DHT22;11117;48.644;9.006;2023-04-03T14:13:14;7.40;99.80
21906;DHT22;11117;48.644;9.006;2023-04-03T14:15:40;7.40;99.90
21906;DHT22;11117;48.644;9.006;2023-04-03T14:18:06;7.30;99.40
21906;DHT22;11117;48.644;9.006;2023-04-03T14:20:31;7.40;99.50
21906;DHT22;11117;48.644;9.006;2023-04-03T14:22:57;7.50;98.90
21906;DHT22;11117;48.644;9.006;2023-04-03T14:25:23;7.50;99.60
21906;DHT22;11117;48.644;9.006;2023-04-03T14:27:50;7.70;98.70
21906;DHT22;11117;48.644;9.006;2023-04-03T14:30:20;7.80;99.10
21906;DHT22;11117;48.644;9.006;2023-04-03T14:32:47;7.60;98.80
21906;DHT22;11117;48.644;9.006;2023-04-03T14:35:13;7.50;98.60
21906;DHT22;11117;48.644;9.006;2023-04-03T14:37:39;7.50;98.60
21906;DHT22;11117;48.644;9.006;2023-04-03T14:40:06;7.90;98.70
21906;DHT22;11117;48.644;9.006;2023-04-03T14:42:35;7.60;98.20
21906;DHT22;11117;48.644;9.006;2023-04-03T14:45:03;7.40;98.50
21906;DHT22;11117;48.644;9.006;2023-04-03T14:47:29;7.40;98.90
21906;DHT22;11117;48.644;9.006;2023-04-03T14:49:55;7.50;98.90
21906;DHT22;11117;48.644;9.006;2023-04-03T14:52:30;7.20;98.30
21906;DHT22;11117;48.644;9.006;2023-04-03T14:54:56;7.00;98.90
21906;DHT22;11117;48.644;9.006;2023-04-03T14:57:25;6.80;99.20
21906;DHT22;11117;48.644;9.006;2023-04-03T14:59:51;6.70;98.80
21906;DHT22;11117;48.644;9.006;2023-04-03T15:02:35;6.90;99.30
21906;DHT22;11117;48.644;9.006;2023-04-03T15:05:03;6.90;99.60
21906;DHT22;11117;48.644;9.006;2023-04-03T15:07:32;6.80;99.40
21906;DHT22;11117;48.644;9.006;2023-04-03T15:10:02;6.70;99.60
21906;DHT22;11117;48.644;9.006;2023-04-03T15:12:28;6.60;99.70
21906;DHT22;11117;48.644;9.006;2023-04-03T15:14:53;6.60;99.70
21906;DHT22;11117;48.644;9.006;2023-04-03T15:17:21;6.70;99.20
21906;DHT22;11117;48.644;9.006;2023-04-03T15:19:47;6.60;99.80
21906;DHT22;11117;48.644;9.006;2023-04-03T15:22:18;6.80;99.60
21906;DHT22;11117;48.644;9.006;2023-04-03T15:24:44;6.90;99.70
21906;DHT22;11117;48.644;9.006;2023-04-03T15:27:11;6.90;99.30
21906;DHT22;11117;48.644;9.006;2023-04-03T15:29:38;6.90;98.80
21906;DHT22;11117;48.644;9.006;2023-04-03T15:32:04;7.20;99.00
21906;DHT22;11117;48.644;9.006;2023-04-03T15:34:30;7.40;97.70
21906;DHT22;11117;48.644;9.006;2023-04-03T15:36:57;7.60;98.20
21906;DHT22;11117;48.644;9.006;2023-04-03T15:39:23;7.30;98.00
21906;DHT22;11117;48.644;9.006;2023-04-03T15:41:49;7.10;97.80
21906;DHT22;11117;48.644;9.006;2023-04-03T15:44:15;6.90;98.00
21906;DHT22;11117;48.644;9.006;2023-04-03T15:46:40;6.50;97.70
21906;DHT22;11117;48.644;9.006;2023-04-03T15:49:06;6.80;98.50
21906;DHT22;11117;48.644;9.006;2023-04-03T15:51:31;6.90;98.00
21906;DHT22;11117;48.644;9.006;2023-04-03T15:53:57;6.90;97.80
21906;DHT22;11117;48.644;9.006;2023-04-03T15:56:22;6.80;98.00
21906;DHT22;11117;48.644;9.006;2023-04-03T15:58:48;6.90;97.70
21906;DHT22;11117;48.644;9.006;2023-04-03T16:01:14;6.90;97.80
21906;DHT22;11117;48.644;9.006;2023-04-03T16:03:41;7.00;97.60
21906;DHT22;11117;48.644;9.006;2023-04-03T16:06:07;7.10;97.70
21906;DHT22;11117;48.644;9.006;2023-04-03T16:08:33;7.20;97.40
21906;DHT22;11117;48.644;9.006;2023-04-03T16:10:58;7.10;96.60
21906;DHT22;11117;48.644;9.006;2023-04-03T16:13:24;6.70;96.70
21906;DHT22;11117;48.644;9.006;2023-04-03T16:15:49;6.50;96.70
21906;DHT22;11117;48.644;9.006;2023-04-03T16:18:15;6.60;96.90
21906;DHT22;11117;48.644;9.006;2023-04-03T16:20:40;6.40;96.50
21906;DHT22;11117;48.644;9.006;2023-04-03T16:23:06;6.20;96.50
21906;DHT22;11117;48.644;9.006;2023-04-03T16:25:31;6.20;96.60
21906;DHT22;11117;48.644;9.006;2023-04-03T16:27:57;5.90;96.60
21906;DHT22;11117;48.644;9.006;2023-04-03T16:30:23;6.00;97.10
21906;DHT22;11117;48.644;9.006;2023-04-03T16:32:48;5.80;97.20
21906;DHT22;11117;48.644;9.006;2023-04-03T16:35:17;5.80;97.00
21906;DHT22;11117;48.644;9.006;2023-04-03T16:37:42;5.80;97.00
21906;DHT22;11117;48.644;9.006;2023-04-03T16:40:08;5.90;97.20
21906;DHT22;11117;48.644;9.006;2023-04-03T16:42:34;5.90;97.10
21906;DHT22;11117;48.644;9.006;2023-04-03T16:45:00;5.90;97.10
21906;DHT22;11117;48.644;9.006;2023-04-03T16:47:25;6.10;97.40
21906;DHT22;11117;48.644;9.006;2023-04-03T16:49:51;6.20;97.20
21906;DHT22;11117;48.644;9.006;2023-04-03T16:52:16;6.20;97.30
21906;DHT22;11117;48.644;9.006;2023-04-03T16:54:42;6.10;97.30
21906;DHT22;11117;48.644;9.006;2023-04-03T16:57:07;6.00;96.90
21906;DHT22;11117;48.644;9.006;2023-04-03T16:59:33;6.00;96.90
21906;DHT22;11117;48.644;9.006;2023-04-03T17:01:59;5.80;96.90
21906;DHT22;11117;48.644;9.006;2023-04-03T17:04:25;5.90;96.60
21906;DHT22;11117;48.644;9.006;2023-04-03T17:06:51;5.90;96.30
21906;DHT22;11117;48.644;9.006;2023-04-03T17:09:17;5.60;95.80
21906;DHT22;11117;48.644;9.006;2023-04-03T17:11:42;5.60;95.40
21906;DHT22;11117;48.644;9.006;2023-04-03T17:14:08;5.50;95.60
21906;DHT22;11117;48.644;9.006;2023-04-03T17:16:35;5.40;95.90
21906;DHT22;11117;48.644;9.006;2023-04-03T17:19:02;5.30;95.70
21906;DHT22;11117;48.644;9.006;2023-04-03T17:21:27;5.40;96.10
21906;DHT22;11117;48.644;9.006;2023-04-03T17:23:59;5.40;96.10
21906;DHT22;11117;48.644;9.006;2023-04-03T17:26:26;5.40;95.80
21906;DHT22;11117;48.644;9.006;2023-04-03T17:28:52;5.40;96.10
21906;DHT22;11117;48.644;9.006;2023-04-03T17:31:18;5.40;95.60
21906;DHT22;11117;48.644;9.006;2023-04-03T17:33:43;5.30;95.70
21906;DHT22;11117;48.644;9.006;2023-04-03T17:36:09;5.30;95.80